地図

経路データ

SID SEASON NUMBER BASIN SUBBASIN NAME ISO_TIME NATURE LAT LON WMO_WIND WMO_PRES WMO_AGENCY TRACK_TYPE DIST2LAND LANDFALL IFLAG USA_AGENCY USA_ATCF_ID USA_LAT USA_LON USA_RECORD USA_STATUS USA_WIND USA_PRES USA_SSHS USA_R34_NE USA_R34_SE USA_R34_SW USA_R34_NW USA_R50_NE USA_R50_SE USA_R50_SW USA_R50_NW USA_R64_NE USA_R64_SE USA_R64_SW USA_R64_NW USA_POCI USA_ROCI USA_RMW USA_EYE TOKYO_LAT TOKYO_LON TOKYO_GRADE TOKYO_WIND TOKYO_PRES TOKYO_R50_DIR TOKYO_R50_LONG TOKYO_R50_SHORT TOKYO_R30_DIR TOKYO_R30_LONG TOKYO_R30_SHORT TOKYO_LAND CMA_LAT CMA_LON CMA_CAT CMA_WIND CMA_PRES HKO_LAT HKO_LON HKO_CAT HKO_WIND HKO_PRES NEWDELHI_LAT NEWDELHI_LON NEWDELHI_GRADE NEWDELHI_WIND NEWDELHI_PRES NEWDELHI_CI NEWDELHI_DP NEWDELHI_POCI REUNION_LAT REUNION_LON REUNION_TYPE REUNION_WIND REUNION_PRES REUNION_TNUM REUNION_CI REUNION_RMW REUNION_R34_NE REUNION_R34_SE REUNION_R34_SW REUNION_R34_NW REUNION_R50_NE REUNION_R50_SE REUNION_R50_SW REUNION_R50_NW REUNION_R64_NE REUNION_R64_SE REUNION_R64_SW REUNION_R64_NW BOM_LAT BOM_LON BOM_TYPE BOM_WIND BOM_PRES BOM_TNUM BOM_CI BOM_RMW BOM_R34_NE BOM_R34_SE BOM_R34_SW BOM_R34_NW BOM_R50_NE BOM_R50_SE BOM_R50_SW BOM_R50_NW BOM_R64_NE BOM_R64_SE BOM_R64_SW BOM_R64_NW BOM_ROCI BOM_POCI BOM_EYE BOM_POS_METHOD BOM_PRES_METHOD NADI_LAT NADI_LON NADI_CAT NADI_WIND NADI_PRES WELLINGTON_LAT WELLINGTON_LON WELLINGTON_WIND WELLINGTON_PRES DS824_LAT DS824_LON DS824_STAGE DS824_WIND DS824_PRES TD9636_LAT TD9636_LON TD9636_STAGE TD9636_WIND TD9636_PRES TD9635_LAT TD9635_LON TD9635_WIND TD9635_PRES TD9635_ROCI NEUMANN_LAT NEUMANN_LON NEUMANN_CLASS NEUMANN_WIND NEUMANN_PRES MLC_LAT MLC_LON MLC_CLASS MLC_WIND MLC_PRES USA_GUST BOM_GUST BOM_GUST_PER REUNION_GUST REUNION_GUST_PER USA_SEAHGT USA_SEARAD_NE USA_SEARAD_SE USA_SEARAD_SW USA_SEARAD_NW STORM_SPEED STORM_DIR
1932262N19089 1932 52 NI BB NOT_NAMED 1932-09-18 00:00:00 TS 18.8000 88.9000 main 285 276 _________O____ -1 18.8000 88.9000 TC 30 2 296
1932262N19089 1932 52 NI BB NOT_NAMED 1932-09-18 03:00:00 TS 18.8350 88.8267 main 276 270 _________PO___ -1 18.8525 88.7900 TC 30 18.8000 88.9000 1 2 298
1932262N19089 1932 52 NI BB NOT_NAMED 1932-09-18 06:00:00 TS 18.8756 88.7487 main 261 261 _________OP___ -1 18.9000 88.7000 TC 30 18.8391 88.8219 1 2 302
1932262N19089 1932 52 NI BB NOT_NAMED 1932-09-18 09:00:00 TS 18.9168 88.6864 main 261 246 _________PP___ -1 18.9425 88.6425 TC 30 18.8825 88.7450 1 1 312
1932262N19089 1932 52 NI BB NOT_NAMED 1932-09-18 12:00:00 TS 18.9674 88.6353 main 246 246 _________OP___ -1 19.0000 88.6000 TC 30 18.9347 88.6706 1 2 323
1932262N19089 1932 52 NI BB NOT_NAMED 1932-09-18 15:00:00 TS 19.0500 88.5750 main 239 231 _________PO___ -1 19.1000 88.5500 TC 30 19.0000 88.6000 1 2 327
1932262N19089 1932 52 NI BB NOT_NAMED 1932-09-18 18:00:00 TS 19.1400 88.5173 main 231 224 _________OP___ -1 19.2000 88.5000 TC 30 19.0800 88.5347 1 2 327
1932262N19089 1932 52 NI BB NOT_NAMED 1932-09-18 21:00:00 TS 19.2150 88.4600 main 224 210 _________PP___ -1 19.2650 88.4425 TC 30 19.1650 88.4775 1 2 324
1932262N19089 1932 52 NI BB NOT_NAMED 1932-09-19 00:00:00 TS 19.2712 88.4158 main 210 210 _________OP___ -1 19.3000 88.4000 TC 30 19.2425 88.4316 1 1 328
1932262N19089 1932 52 NI BB NOT_NAMED 1932-09-19 03:00:00 TS 19.3037 88.3962 main 210 210 _________PO___ -1 19.3075 88.3925 TC 30 19.3000 88.4000 1 0 358
1932262N19089 1932 52 NI BB NOT_NAMED 1932-09-19 06:00:00 TS 19.3108 88.3928 main 210 210 _________OP___ -1 19.3000 88.4000 TC 30 19.3216 88.3856 1 0 0
1932262N19089 1932 52 NI BB NOT_NAMED 1932-09-19 09:00:00 TS 19.3112 88.3925 main 210 210 _________PP___ -1 19.3000 88.4000 TC 30 19.3225 88.3850 1 0 0
1932262N19089 1932 52 NI BB NOT_NAMED 1932-09-19 12:00:00 TS 19.3061 88.3959 main 210 210 _________OP___ -1 19.3000 88.4000 TC 30 19.3122 88.3919 1 0 0
1932262N19089 1932 52 NI BB NOT_NAMED 1932-09-19 15:00:00 TS 19.3000 88.4000 main 210 210 _________PO___ -1 19.3000 88.4000 TC 30 19.3000 88.4000 1 0 0
1932262N19089 1932 52 NI BB NOT_NAMED 1932-09-19 18:00:00 TS 19.2797 88.4040 main 210 210 _________OP___ -1 19.3000 88.4000 TC 30 19.2594 88.4081 1 1 160
1932262N19089 1932 52 NI BB NOT_NAMED 1932-09-19 21:00:00 TS 19.2475 88.4112 main 216 210 _________PP___ -1 19.2700 88.4075 TC 30 19.2250 88.4149 1 0 0
1932262N19089 1932 52 NI BB NOT_NAMED 1932-09-20 00:00:00 TS 19.2641 88.4071 main 210 204 _________OP___ -1 19.3000 88.4000 TC 30 19.2281 88.4143 1 1 342
1932262N19089 1932 52 NI BB NOT_NAMED 1932-09-20 03:00:00 TS 19.3775 88.3788 main 204 183 _________PO___ -1 19.4550 88.3575 TC 31 19.3000 88.4000 1 3 348
1932262N19089 1932 52 NI BB NOT_NAMED 1932-09-20 06:00:00 TS 19.5850 88.3322 main 183 168 _________OP___ -1 19.7000 88.3000 TC 32 19.4700 88.3644 1 5 349
1932262N19089 1932 52 NI BB NOT_NAMED 1932-09-20 09:00:00 TS 19.8475 88.2825 main 168 141 _________PP___ -1 19.9850 88.2500 TC 33 19.7100 88.3151 1 6 350
1932262N19089 1932 52 NI BB NOT_NAMED 1932-09-20 12:00:00 TS 20.1475 88.2291 main 141 129 _________OP___ -1 20.3000 88.2000 TC 34 19.9950 88.2582 1 6 350
1932262N19089 1932 52 NI BB NOT_NAMED 1932-09-20 15:00:00 TS 20.4500 88.1750 main 123 100 _________PO___ -1 20.6000 88.1500 TC 33 20.3000 88.2000 2 6 354
1932262N19089 1932 52 NI BB NOT_NAMED 1932-09-20 18:00:00 TS 20.7485 88.1711 main 100 67 _________OP___ -1 20.9000 88.1000 TC 32 20.5970 88.2422 2 6 0
1932262N19089 1932 52 NI BB NOT_NAMED 1932-09-20 21:00:00 TS 21.0454 88.1938 main 67 33 _________PP___ -1 21.1848 88.1169 TC 31 20.9060 88.2707 2 6 354
1932262N19089 1932 52 NI BB NOT_NAMED 1932-09-21 00:00:00 TS 21.3560 88.1069 main 24 0 _________OP___ -1 21.5000 88.0000 TC 30 21.2120 88.2139 2 8 331
1932262N19089 1932 52 NI BB NOT_NAMED 1932-09-21 03:00:00 TS 21.7187 87.8029 main 0 0 _________PO___ -1 21.9374 87.6058 TC 30 21.5000 88.0000 1 10 311
1932262N19089 1932 52 NI BB NOT_NAMED 1932-09-21 06:00:00 TS 22.0443 87.2670 main 0 0 _________OP___ -1 22.3000 87.0000 TC 30 21.7886 87.5341 1 12 294
1932262N19089 1932 52 NI BB NOT_NAMED 1932-09-21 09:00:00 TS 22.2300 86.5835 main 0 0 _________PP___ -1 22.4105 86.2570 TC 30 22.0495 86.9101 1 13 282
1932262N19089 1932 52 NI BB NOT_NAMED 1932-09-21 12:00:00 TS 22.3302 85.8529 main 0 0 _________OP___ -1 22.4000 85.5000 TC 30 22.2604 86.2058 1 13 278
1932262N19089 1932 52 NI BB NOT_NAMED 1932-09-21 15:00:00 TS 22.4072 85.2137 main 0 0 _________PO___ -1 22.4144 84.9275 TC 30 22.4000 85.5000 1 11 275
1932262N19089 1932 52 NI BB NOT_NAMED 1932-09-21 18:00:00 TS 22.4188 84.6606 main 0 0 _________OP___ -1 22.4000 84.4000 TC 30 22.4375 84.9211 1 10 268
1932262N19089 1932 52 NI BB NOT_NAMED 1932-09-21 21:00:00 TS 22.3791 84.0851 main 0 0 _________PP___ -1 22.3498 83.8148 TC 30 22.4083 84.3553 1 11 265
1932262N19089 1932 52 NI BB NOT_NAMED 1932-09-22 00:00:00 TS 22.3250 83.4935 main 0 0 _________OP___ -1 22.3000 83.2000 TC 30 22.3500 83.7870 1 11 266
1932262N19089 1932 52 NI BB NOT_NAMED 1932-09-22 03:00:00 TS 22.2924 82.8787 main 0 0 _________PO___ -1 22.2848 82.5575 TC 30 22.3000 83.2000 1 12 268
1932262N19089 1932 52 NI BB NOT_NAMED 1932-09-22 06:00:00 TS 22.2833 82.2131 main 0 0 _________OP___ -1 22.3000 81.9000 TC 30 22.2667 82.5262 1 13 270
1932262N19089 1932 52 NI BB NOT_NAMED 1932-09-22 09:00:00 TS 22.2832 81.5256 main 0 0 _________PP___ -1 22.3126 81.2123 TC 30 22.2537 81.8388 1 12 273
1932262N19089 1932 52 NI BB NOT_NAMED 1932-09-22 12:00:00 TS 22.3443 80.8911 main 0 0 _________OP___ -1 22.4000 80.6000 TC 30 22.2887 81.1822 1 11 282
1932262N19089 1932 52 NI BB NOT_NAMED 1932-09-22 15:00:00 TS 22.5023 80.3775 main 0 0 _________PO___ -1 22.6046 80.1550 TC 30 22.4000 80.6000 1 10 296
1932262N19089 1932 52 NI BB NOT_NAMED 1932-09-22 18:00:00 TS 22.7681 79.9533 main 0 0 _________OP___ -1 22.9000 79.8000 TC 30 22.6362 80.1066 1 10 308
1932262N19089 1932 52 NI BB NOT_NAMED 1932-09-22 21:00:00 TS 23.1020 79.5535 main 0 0 _________PP___ -1 23.2575 79.4127 TC 30 22.9465 79.6942 1 9 315
1932262N19089 1932 52 NI BB NOT_NAMED 1932-09-23 00:00:00 TS 23.4417 79.2298 main 0 0 _________OP___ -1 23.6000 79.1000 TC 30 23.2835 79.3596 1 8 321
1932262N19089 1932 52 NI BB NOT_NAMED 1932-09-23 03:00:00 TS 23.7112 79.0061 main 0 0 _________PO___ -1 23.8224 78.9122 TC 30 23.6000 79.1000 1 6 323
1932262N19089 1932 52 NI BB NOT_NAMED 1932-09-23 06:00:00 TS 23.9080 78.8510 main 0 0 _________OP___ -1 24.0000 78.8000 TC 30 23.8160 78.9021 1 5 328
1932262N19089 1932 52 NI BB NOT_NAMED 1932-09-23 09:00:00 TS 24.0996 78.7368 main 0 0 _________PP___ -1 24.1925 78.6999 TC 30 24.0068 78.7737 1 4 334
1932262N19089 1932 52 NI BB NOT_NAMED 1932-09-23 12:00:00 TS 24.2971 78.6418 main 0 0 _________OP___ -1 24.4000 78.6000 TC 30 24.1943 78.6835 1 5 335
1932262N19089 1932 52 NI BB NOT_NAMED 1932-09-23 15:00:00 TS 24.5175 78.5250 main 0 0 _________PO___ -1 24.6350 78.4500 TC 30 24.4000 78.6000 1 5 335
1932262N19089 1932 52 NI BB NOT_NAMED 1932-09-23 18:00:00 TS 24.7516 78.4129 main 0 0 _________OP___ -1 24.9000 78.3000 TC 30 24.6403 78.4976 1 5 338
1932262N19089 1932 52 NI BB NOT_NAMED 1932-09-23 21:00:00 TS 25.0232 78.3007 main 0 0 _________PP___ -1 25.1925 78.1875 TC 30 24.9104 78.3761 1 6 340
1932262N19089 1932 52 NI BB NOT_NAMED 1932-09-24 00:00:00 TS 25.3002 78.1944 main 0 0 _________OP___ -1 25.5000 78.1000 TC 30 25.2003 78.2415 1 5 339
1932262N19089 1932 52 NI BB NOT_NAMED 1932-09-24 03:00:00 NR 25.5000 78.1000 main 0 __________O___ -1 TC 25.5000 78.1000 1 4 335

IBTrACS Databaseについて

本データベースは、米国NOAAが公開する1842年以降の世界の熱帯低気圧のベストトラックデータアーカイブInternational Best Track Archive for Climate Stewardship (IBTrACS)を、ウェブで閲覧しやすい形式に変換したものです。

最終更新日:2021-10-25